createdAt,value
2017-04-12T00:00:26.489Z,0
2017-04-12T00:01:35.697Z,0
2017-04-12T00:02:44.649Z,0
2017-04-12T00:03:53.921Z,0
2017-04-12T00:05:02.872Z,0
2017-04-12T00:06:11.908Z,0
2017-04-12T00:07:21.161Z,0
2017-04-12T00:08:30.120Z,0
2017-04-12T00:09:39.075Z,0
2017-04-12T00:10:48.031Z,0
2017-04-12T00:11:56.989Z,0
2017-04-12T00:13:06.192Z,0
2017-04-12T00:14:15.237Z,0
2017-04-12T00:15:24.187Z,0
2017-04-12T00:16:33.139Z,0
2017-04-12T00:17:42.099Z,0
2017-04-12T00:18:51.305Z,0
2017-04-12T00:20:00.265Z,0
2017-04-12T00:21:09.214Z,0
2017-04-12T00:22:18.170Z,0
2017-04-12T00:23:27.217Z,0
2017-04-12T00:24:36.418Z,0
2017-04-12T00:25:45.461Z,0
2017-04-12T00:26:54.409Z,0
2017-04-12T00:28:03.361Z,0
2017-04-12T00:29:12.311Z,0
2017-04-12T00:30:21.569Z,0
2017-04-12T00:31:30.525Z,0
2017-04-12T00:32:39.477Z,0
2017-04-12T00:33:48.436Z,0
2017-04-12T00:34:57.390Z,0
2017-04-12T00:36:06.594Z,0
2017-04-12T00:37:15.872Z,0
2017-04-12T00:38:24.821Z,0
2017-04-12T00:39:33.861Z,0
2017-04-12T00:40:42.816Z,0
2017-04-12T00:41:52.150Z,0
2017-04-12T00:43:01.099Z,0
2017-04-12T00:44:10.053Z,0
2017-04-12T00:45:19.011Z,0
2017-04-12T00:46:27.966Z,0
2017-04-12T00:47:37.180Z,0
2017-04-12T00:48:46.135Z,0
2017-04-12T00:49:55.090Z,0
2017-04-12T00:51:04.560Z,0
2017-04-12T00:52:13.839Z,0
2017-04-12T00:53:23.132Z,0
2017-04-12T00:54:32.287Z,0
2017-04-12T00:55:41.262Z,0
2017-04-12T00:56:50.218Z,0
2017-04-12T00:57:59.177Z,0
2017-04-12T00:59:08.520Z,0
2017-04-12T01:00:17.558Z,0
2017-04-12T01:01:26.509Z,0
2017-04-12T01:02:35.552Z,0
2017-04-12T01:03:44.519Z,0
2017-04-12T01:04:53.729Z,0
2017-04-12T01:06:02.682Z,0
2017-04-12T01:07:11.643Z,0
2017-04-12T01:08:20.592Z,0
2017-04-12T01:09:29.604Z,0
2017-04-12T01:10:38.805Z,0
2017-04-12T01:11:47.757Z,0
2017-04-12T01:12:56.716Z,0
2017-04-12T01:14:05.666Z,0
2017-04-12T01:15:14.620Z,0
2017-04-12T01:16:23.875Z,0
2017-04-12T01:17:32.827Z,0
2017-04-12T01:18:41.910Z,0
2017-04-12T01:19:50.953Z,0
2017-04-12T01:20:59.908Z,0
2017-04-12T01:22:09.110Z,0
2017-04-12T01:23:18.071Z,0
2017-04-12T01:24:27.032Z,0
2017-04-12T01:25:36.305Z,0
2017-04-12T01:26:45.346Z,0
2017-04-12T01:27:54.554Z,0
2017-04-12T01:29:03.505Z,0
2017-04-12T01:30:12.461Z,0
2017-04-12T01:31:21.417Z,0
2017-04-12T01:32:30.369Z,0
2017-04-12T01:33:39.620Z,0
2017-04-12T01:34:48.660Z,0
2017-04-12T01:35:57.614Z,0
2017-04-12T01:37:06.565Z,0
2017-04-12T01:38:15.518Z,0
2017-04-12T01:39:24.720Z,0
2017-04-12T01:40:33.671Z,0
2017-04-12T01:41:42.938Z,0
2017-04-12T01:42:51.973Z,0
2017-04-12T01:44:00.925Z,0
2017-04-12T01:45:10.183Z,0
2017-04-12T01:46:19.142Z,0
2017-04-12T01:47:28.095Z,0
2017-04-12T01:48:37.050Z,0
2017-04-12T01:49:46.004Z,0
2017-04-12T01:50:55.205Z,0
2017-04-12T01:52:04.157Z,0
2017-04-12T01:53:13.109Z,0
2017-04-12T01:54:22.057Z,0
2017-04-12T01:55:31.016Z,0
2017-04-12T01:56:40.223Z,0
2017-04-12T01:57:49.180Z,0
2017-04-12T01:58:58.140Z,0
2017-04-12T02:00:07.095Z,0
2017-04-12T02:01:16.049Z,0
2017-04-12T02:02:25.263Z,0
2017-04-12T02:03:34.215Z,0
2017-04-12T02:04:43.170Z,0
2017-04-12T02:05:52.124Z,0
2017-04-12T02:07:01.075Z,0
2017-04-12T02:08:10.277Z,0
2017-04-12T02:09:19.558Z,0
2017-04-12T02:10:28.511Z,0
2017-04-12T02:11:37.459Z,0
2017-04-12T02:12:46.735Z,0
2017-04-12T02:13:56.023Z,0
2017-04-12T02:15:04.978Z,0
2017-04-12T02:16:13.936Z,0
2017-04-12T02:17:22.893Z,0
2017-04-12T02:18:31.842Z,0
2017-04-12T02:19:41.043Z,0
2017-04-12T02:20:49.987Z,0
2017-04-12T02:21:58.936Z,0
2017-04-12T02:23:07.880Z,0
2017-04-12T02:24:16.835Z,0
2017-04-12T02:25:26.041Z,0
2017-04-12T02:26:35.038Z,0
2017-04-12T02:27:43.989Z,0
2017-04-12T02:28:52.943Z,0
2017-04-12T02:30:01.897Z,0
2017-04-12T02:31:11.513Z,0
2017-04-12T02:32:20.801Z,0
2017-04-12T02:33:29.754Z,0
2017-04-12T02:34:38.709Z,0
2017-04-12T02:35:47.664Z,0
2017-04-12T02:36:56.913Z,0
2017-04-12T02:38:05.869Z,0
2017-04-12T02:39:14.828Z,0
2017-04-12T02:40:23.779Z,0
2017-04-12T02:41:32.765Z,0
2017-04-12T02:42:41.967Z,0
2017-04-12T02:43:50.924Z,0
2017-04-12T02:44:59.881Z,0
2017-04-12T02:46:08.920Z,0
2017-04-12T02:47:17.886Z,0
2017-04-12T02:48:27.323Z,0
2017-04-12T02:49:36.287Z,0
2017-04-12T02:50:45.238Z,0
2017-04-12T02:51:54.196Z,0
2017-04-12T02:53:03.152Z,0
2017-04-12T02:54:12.353Z,0
2017-04-12T02:55:21.391Z,0
2017-04-12T02:56:30.340Z,0
2017-04-12T02:57:39.289Z,0
2017-04-12T02:58:48.240Z,0
2017-04-12T02:59:57.493Z,0
2017-04-12T03:01:06.452Z,0
2017-04-12T03:02:15.408Z,0
2017-04-12T03:03:24.449Z,0
2017-04-12T03:04:33.398Z,0
2017-04-12T03:05:42.653Z,0
2017-04-12T03:06:51.605Z,0
2017-04-12T03:08:00.559Z,0
2017-04-12T03:09:09.517Z,0
2017-04-12T03:10:18.472Z,0
2017-04-12T03:11:27.730Z,0
2017-04-12T03:12:36.766Z,0
2017-04-12T03:13:45.725Z,0
2017-04-12T03:14:54.764Z,0
2017-04-12T03:16:03.719Z,0
2017-04-12T03:17:12.971Z,0
2017-04-12T03:18:21.920Z,0
2017-04-12T03:19:30.872Z,0
2017-04-12T03:20:40.156Z,0
2017-04-12T03:21:49.113Z,0
2017-04-12T03:22:58.320Z,0
2017-04-12T03:24:07.277Z,0
2017-04-12T03:25:16.223Z,0
2017-04-12T03:26:25.175Z,0
2017-04-12T03:27:34.128Z,0
2017-04-12T03:28:43.563Z,0
2017-04-12T03:29:52.512Z,0
2017-04-12T03:31:01.458Z,0
2017-04-12T03:32:10.735Z,0
2017-04-12T03:33:19.683Z,0
2017-04-12T03:34:28.882Z,0
2017-04-12T03:35:37.834Z,0
2017-04-12T03:36:46.877Z,0
2017-04-12T03:37:55.826Z,0
2017-04-12T03:39:04.776Z,0
2017-04-12T03:40:13.986Z,0
2017-04-12T03:41:22.940Z,0
2017-04-12T03:42:31.894Z,0
2017-04-12T03:43:40.859Z,0
2017-04-12T03:44:49.814Z,0
2017-04-12T03:45:59.154Z,0
2017-04-12T03:47:08.109Z,0
2017-04-12T03:48:17.065Z,0
2017-04-12T03:49:26.023Z,0
2017-04-12T03:50:34.974Z,0
2017-04-12T03:51:44.178Z,0
2017-04-12T03:52:53.134Z,0
2017-04-12T03:54:02.093Z,0
2017-04-12T03:55:11.129Z,0
2017-04-12T03:56:20.079Z,0
2017-04-12T03:57:29.282Z,0
2017-04-12T03:58:38.236Z,0
2017-04-12T03:59:47.275Z,0
2017-04-12T04:00:56.229Z,0
2017-04-12T04:02:05.180Z,0
2017-04-12T04:03:14.470Z,0
2017-04-12T04:04:23.423Z,0
2017-04-12T04:05:32.463Z,0
2017-04-12T04:06:41.500Z,0
2017-04-12T04:07:50.446Z,0
2017-04-12T04:08:59.703Z,0
2017-04-12T04:10:08.657Z,0
2017-04-12T04:11:17.609Z,0
2017-04-12T04:12:26.566Z,0
2017-04-12T04:13:35.519Z,0
2017-04-12T04:14:44.859Z,0
2017-04-12T04:15:53.809Z,0
2017-04-12T04:17:02.856Z,0
2017-04-12T04:18:11.808Z,0
2017-04-12T04:19:20.762Z,0
2017-04-12T04:20:30.019Z,0
2017-04-12T04:21:38.969Z,0
2017-04-12T04:22:48.007Z,0
2017-04-12T04:23:56.966Z,0
2017-04-12T04:25:05.923Z,0
2017-04-12T04:26:15.119Z,0
2017-04-12T04:27:24.076Z,0
2017-04-12T04:28:33.116Z,0
2017-04-12T04:29:42.069Z,0
2017-04-12T04:30:51.021Z,0
2017-04-12T04:32:00.228Z,0
2017-04-12T04:33:09.182Z,5
2017-04-12T04:34:18.217Z,0
2017-04-12T04:35:27.169Z,5
2017-04-12T04:36:36.125Z,5
2017-04-12T04:37:45.328Z,5
2017-04-12T04:38:54.273Z,5
2017-04-12T04:40:03.225Z,5
2017-04-12T04:41:12.181Z,5
2017-04-12T04:42:21.131Z,5
2017-04-12T04:43:30.340Z,5
2017-04-12T04:44:39.382Z,10
2017-04-12T04:45:48.381Z,10
2017-04-12T04:46:57.330Z,10
2017-04-12T04:48:06.384Z,10
2017-04-12T04:49:15.582Z,10
2017-04-12T04:50:24.532Z,10
2017-04-12T04:51:33.484Z,10
2017-04-12T04:52:42.441Z,10
2017-04-12T04:53:51.830Z,10
2017-04-12T04:55:01.565Z,10
2017-04-12T04:56:10.517Z,10
2017-04-12T04:57:19.466Z,10
2017-04-12T04:58:28.746Z,10
2017-04-12T04:59:37.709Z,10
2017-04-12T05:00:46.907Z,10
2017-04-12T05:01:55.859Z,10
2017-04-12T05:03:04.894Z,10
2017-04-12T05:04:13.843Z,10
2017-04-12T05:05:22.795Z,10
2017-04-12T05:06:32.001Z,10
2017-04-12T05:07:41.042Z,10
2017-04-12T05:08:50.008Z,10
2017-04-12T05:09:59.543Z,10
2017-04-12T05:11:08.759Z,15
2017-04-12T05:12:18.172Z,15
2017-04-12T05:13:27.451Z,10
2017-04-12T05:14:36.400Z,10
2017-04-12T05:15:45.915Z,10
2017-04-12T05:16:54.997Z,10
2017-04-12T05:18:04.282Z,10
2017-04-12T05:19:13.290Z,15
2017-04-12T05:20:22.317Z,10
2017-04-12T05:21:31.455Z,10
2017-04-12T05:22:40.585Z,15
2017-04-12T05:23:49.804Z,10
2017-04-12T05:24:58.753Z,10
2017-04-12T05:26:25.086Z,10
2017-04-12T05:27:38.491Z,10
2017-04-12T05:28:47.927Z,15
2017-04-12T05:29:56.875Z,10
2017-04-12T05:31:05.836Z,10
2017-04-12T05:32:15.120Z,10
2017-04-12T05:33:24.570Z,10
2017-04-12T05:34:33.835Z,10
2017-04-12T05:35:42.817Z,10
2017-04-12T05:36:52.042Z,15
2017-04-12T05:38:01.254Z,15
2017-04-12T05:39:10.208Z,10
2017-04-12T05:40:19.411Z,20
2017-04-12T05:41:28.359Z,20
2017-04-12T05:42:37.638Z,15
2017-04-12T05:43:46.590Z,15
2017-04-12T05:44:55.543Z,20
2017-04-12T05:46:04.799Z,20
2017-04-12T05:47:13.868Z,20
2017-04-12T05:48:22.822Z,20
2017-04-12T05:49:31.779Z,15
2017-04-12T05:50:40.844Z,15
2017-04-12T05:51:50.210Z,15
2017-04-12T05:52:59.169Z,20
2017-04-12T05:54:08.553Z,25
2017-04-12T05:55:17.502Z,25
2017-04-12T05:56:26.460Z,25
2017-04-12T05:57:35.663Z,35
2017-04-12T05:58:44.662Z,35
2017-04-12T05:59:53.620Z,40
2017-04-12T06:01:02.572Z,40
2017-04-12T06:02:11.534Z,40
2017-04-12T06:03:20.737Z,45
2017-04-12T06:04:29.700Z,45
2017-04-12T06:05:38.740Z,50
2017-04-12T06:06:47.698Z,55
2017-04-12T06:07:56.644Z,55
2017-04-12T06:09:05.847Z,40
2017-04-12T06:10:14.811Z,30
2017-04-12T06:11:23.872Z,25
2017-04-12T06:12:32.829Z,20
2017-04-12T06:13:41.780Z,30
2017-04-12T06:14:50.999Z,30
2017-04-12T06:15:59.958Z,30
2017-04-12T06:17:08.911Z,30
2017-04-12T06:18:18.481Z,30
2017-04-12T06:19:38.413Z,40
2017-04-12T06:20:48.777Z,75
2017-04-12T06:21:57.833Z,75
2017-04-12T06:23:16.510Z,45
2017-04-12T06:24:26.511Z,60
2017-04-12T06:25:35.491Z,45
2017-04-12T06:26:44.925Z,40
2017-04-12T06:27:54.005Z,50
2017-04-12T06:29:02.981Z,45
2017-04-12T06:30:11.961Z,55
2017-04-12T06:31:20.934Z,55
2017-04-12T06:32:30.161Z,65
2017-04-12T06:33:39.144Z,65
2017-04-12T06:34:48.121Z,65
2017-04-12T06:35:57.110Z,75
2017-04-12T06:37:06.084Z,80
2017-04-12T06:38:15.317Z,85
2017-04-12T06:39:24.294Z,105
2017-04-12T06:40:33.281Z,115
2017-04-12T06:41:42.254Z,120
2017-04-12T06:42:51.233Z,125
2017-04-12T06:44:00.460Z,140
2017-04-12T06:45:09.443Z,130
2017-04-12T06:46:18.421Z,125
2017-04-12T06:47:27.395Z,135
2017-04-12T06:48:36.379Z,125
2017-04-12T06:49:45.664Z,130
2017-04-12T06:50:54.971Z,145
2017-04-12T06:52:03.946Z,145
2017-04-12T06:53:12.932Z,150
2017-04-12T06:54:21.943Z,140
2017-04-12T06:55:31.315Z,120
2017-04-12T06:56:40.389Z,120
2017-04-12T06:57:49.370Z,115
2017-04-12T06:58:58.344Z,130
2017-04-12T07:00:07.322Z,140
2017-04-12T07:01:16.554Z,150
2017-04-12T07:02:25.523Z,155
2017-04-12T07:03:34.506Z,160
2017-04-12T07:04:43.485Z,165
2017-04-12T07:05:52.461Z,165
2017-04-12T07:07:01.694Z,145
2017-04-12T07:08:10.675Z,120
2017-04-12T07:09:19.759Z,110
2017-04-12T07:10:28.746Z,125
2017-04-12T07:11:37.723Z,140
2017-04-12T07:12:46.942Z,150
2017-04-12T07:13:55.928Z,160
2017-04-12T07:15:04.907Z,150
2017-04-12T07:16:13.974Z,135
2017-04-12T07:17:23.040Z,130
2017-04-12T07:18:32.304Z,125
2017-04-12T07:19:41.282Z,125
2017-04-12T07:20:50.581Z,90
2017-04-12T07:21:59.560Z,95
2017-04-12T07:23:08.534Z,115
2017-04-12T07:24:17.812Z,135
2017-04-12T07:25:26.783Z,105
2017-04-12T07:26:35.754Z,85
2017-04-12T07:27:44.728Z,95
2017-04-12T07:28:53.794Z,100
2017-04-12T07:30:03.067Z,115
2017-04-12T07:31:12.153Z,130
2017-04-12T07:32:21.134Z,150
2017-04-12T07:33:30.162Z,150
2017-04-12T07:34:39.135Z,165
2017-04-12T07:35:48.452Z,190
2017-04-12T07:36:57.431Z,185
2017-04-12T07:38:06.414Z,170
2017-04-12T07:39:15.365Z,165
2017-04-12T07:40:24.405Z,175
2017-04-12T07:41:33.662Z,180
2017-04-12T07:42:42.613Z,175
2017-04-12T07:43:51.659Z,165
2017-04-12T07:45:00.668Z,160
2017-04-12T07:46:09.622Z,135
2017-04-12T07:47:21.770Z,135
2017-04-12T07:48:34.480Z,170
2017-04-12T07:49:44.447Z,170
2017-04-12T07:50:53.495Z,160
2017-04-12T07:52:02.826Z,150
2017-04-12T07:53:12.616Z,125
2017-04-12T07:54:21.806Z,145
2017-04-12T07:55:30.987Z,165
2017-04-12T07:56:40.076Z,155
2017-04-12T07:57:49.252Z,135
2017-04-12T07:58:58.756Z,130
2017-04-12T08:00:07.965Z,140
2017-04-12T08:01:16.927Z,155
2017-04-12T08:02:26.068Z,165
2017-04-12T08:03:35.165Z,190
2017-04-12T08:04:44.870Z,200
2017-04-12T08:05:54.307Z,190
2017-04-12T08:07:03.339Z,185
2017-04-12T08:08:12.430Z,180
2017-04-12T08:09:21.546Z,170
2017-04-12T08:10:30.854Z,175
2017-04-12T08:11:40.166Z,190
2017-04-12T08:12:49.222Z,190
2017-04-12T08:13:58.372Z,190
2017-04-12T08:15:08.463Z,185
2017-04-12T08:16:17.670Z,160
2017-04-12T08:17:26.621Z,170
2017-04-12T08:18:35.574Z,170
2017-04-12T08:19:44.698Z,180
2017-04-12T08:20:53.665Z,170
2017-04-12T08:22:02.871Z,175
2017-04-12T08:23:11.915Z,190
2017-04-12T08:24:20.868Z,170
2017-04-12T08:25:29.824Z,185
2017-04-12T08:26:38.774Z,180
2017-04-12T08:27:48.064Z,200
2017-04-12T08:28:57.018Z,215
2017-04-12T08:30:06.052Z,210
2017-04-12T08:31:15.010Z,220
2017-04-12T08:32:23.961Z,215
2017-04-12T08:33:33.170Z,220
2017-04-12T08:34:42.120Z,210
2017-04-12T08:35:51.077Z,205
2017-04-12T08:37:00.029Z,200
2017-04-12T08:38:08.993Z,185
2017-04-12T08:39:18.284Z,195
2017-04-12T08:40:27.242Z,170
2017-04-12T08:41:36.204Z,150
2017-04-12T08:42:45.157Z,120
2017-04-12T08:43:54.123Z,120
2017-04-12T08:45:03.328Z,120
2017-04-12T08:46:12.293Z,115
2017-04-12T08:47:21.246Z,165
2017-04-12T08:48:30.204Z,160
2017-04-12T08:49:39.245Z,160
2017-04-12T08:50:48.454Z,195
2017-04-12T08:51:57.420Z,190
2017-04-12T08:53:06.651Z,145
2017-04-12T08:54:15.728Z,165
2017-04-12T08:55:24.835Z,165
2017-04-12T08:56:34.623Z,155
2017-04-12T08:57:43.745Z,165
2017-04-12T08:58:52.856Z,185
2017-04-12T09:00:02.015Z,170
2017-04-12T09:01:11.029Z,195
2017-04-12T09:02:20.373Z,250
2017-04-12T09:03:29.595Z,210
2017-04-12T09:04:39.091Z,255
2017-04-12T09:05:48.257Z,185
2017-04-12T09:06:57.293Z,210
2017-04-12T09:08:06.651Z,145
2017-04-12T09:09:15.878Z,105
2017-04-12T09:10:24.872Z,115
2017-04-12T09:11:33.993Z,180
2017-04-12T09:12:43.268Z,140
2017-04-12T09:13:52.654Z,100
2017-04-12T09:15:01.961Z,130
2017-04-12T09:16:11.047Z,140
2017-04-12T09:17:20.001Z,130
2017-04-12T09:18:28.959Z,100
2017-04-12T09:19:38.260Z,90
2017-04-12T09:20:47.305Z,105
2017-04-12T09:21:56.259Z,90
2017-04-12T09:23:05.217Z,100
2017-04-12T09:24:14.174Z,100
2017-04-12T09:25:23.384Z,65
2017-04-12T09:26:32.753Z,145
2017-04-12T09:27:41.709Z,125
2017-04-12T09:28:50.665Z,140
2017-04-12T09:29:59.618Z,150
2017-04-12T09:31:08.822Z,190
2017-04-12T09:32:17.772Z,230
2017-04-12T09:33:26.778Z,175
2017-04-12T09:34:35.737Z,190
2017-04-12T09:35:44.696Z,230
2017-04-12T09:36:53.909Z,190
2017-04-12T09:38:02.865Z,170
2017-04-12T09:39:11.833Z,145
2017-04-12T09:40:20.790Z,190
2017-04-12T09:41:29.798Z,145
2017-04-12T09:42:39.008Z,165
2017-04-12T09:43:47.963Z,140
2017-04-12T09:44:56.919Z,125
2017-04-12T09:46:05.875Z,160
2017-04-12T09:47:15.161Z,180
2017-04-12T09:48:24.368Z,145
2017-04-12T09:49:33.324Z,125
2017-04-12T09:50:42.371Z,100
2017-04-12T09:51:51.601Z,160
2017-04-12T09:53:00.673Z,95
2017-04-12T09:54:10.111Z,160
2017-04-12T09:55:19.069Z,115
2017-04-12T09:56:28.040Z,140
2017-04-12T09:57:37.262Z,160
2017-04-12T09:58:46.547Z,175
2017-04-12T09:59:55.933Z,105
2017-04-12T10:01:04.889Z,105
2017-04-12T10:02:13.853Z,105
2017-04-12T10:03:22.822Z,100
2017-04-12T10:04:31.781Z,105
2017-04-12T10:05:41.078Z,105
2017-04-12T10:06:50.037Z,85
2017-04-12T10:07:58.989Z,80
2017-04-12T10:09:07.996Z,145
2017-04-12T10:10:17.022Z,120
2017-04-12T10:11:26.232Z,140
2017-04-12T10:12:35.182Z,120
2017-04-12T10:13:44.476Z,100
2017-04-12T10:14:53.511Z,90
2017-04-12T10:16:02.537Z,75
2017-04-12T10:17:11.751Z,70
2017-04-12T10:18:20.706Z,110
2017-04-12T10:19:29.658Z,115
2017-04-12T10:20:38.616Z,80
2017-04-12T10:21:47.659Z,70
2017-04-12T10:22:56.867Z,130
2017-04-12T10:24:05.822Z,140
2017-04-12T10:25:14.783Z,110
2017-04-12T10:26:23.753Z,90
2017-04-12T10:27:32.743Z,150
2017-04-12T10:28:41.957Z,145
2017-04-12T10:29:50.914Z,170
2017-04-12T10:30:59.868Z,200
2017-04-12T10:32:08.911Z,170
2017-04-12T10:33:17.864Z,165
2017-04-12T10:34:27.073Z,220
2017-04-12T10:35:36.028Z,195
2017-04-12T10:36:44.981Z,140
2017-04-12T10:37:53.945Z,160
2017-04-12T10:39:02.904Z,185
2017-04-12T10:40:12.161Z,235
2017-04-12T10:41:21.117Z,220
2017-04-12T10:42:30.174Z,220
2017-04-12T10:43:39.127Z,215
2017-04-12T10:44:48.080Z,190
2017-04-12T10:45:57.286Z,190
2017-04-12T10:47:06.331Z,190
2017-04-12T10:48:15.281Z,145
2017-04-12T10:49:24.325Z,150
2017-04-12T10:50:33.280Z,205
2017-04-12T10:51:42.578Z,180
2017-04-12T10:52:51.531Z,190
2017-04-12T10:54:00.567Z,195
2017-04-12T10:55:09.596Z,145
2017-04-12T10:56:18.554Z,180
2017-04-12T10:57:27.902Z,185
2017-04-12T10:58:36.858Z,215
2017-04-12T10:59:45.954Z,190
2017-04-12T11:00:54.935Z,145
2017-04-12T11:02:04.213Z,155
2017-04-12T11:03:13.426Z,155
2017-04-12T11:04:22.455Z,125
2017-04-12T11:05:31.499Z,105
2017-04-12T11:06:40.783Z,160
2017-04-12T11:07:49.743Z,175
2017-04-12T11:08:58.953Z,125
2017-04-12T11:10:08.053Z,220
2017-04-12T11:11:17.131Z,180
2017-04-12T11:12:26.090Z,170
2017-04-12T11:13:35.042Z,160
2017-04-12T11:14:44.277Z,170
2017-04-12T11:15:53.358Z,155
2017-04-12T11:17:02.379Z,165
2017-04-12T11:18:11.488Z,180
2017-04-12T11:19:20.481Z,120
2017-04-12T11:20:30.008Z,135
2017-04-12T11:21:38.978Z,225
2017-04-12T11:22:48.152Z,210
2017-04-12T11:23:57.151Z,175
2017-04-12T11:25:06.234Z,175
2017-04-12T11:26:15.439Z,170
2017-04-12T11:27:24.394Z,155
2017-04-12T11:28:33.436Z,110
2017-04-12T11:29:42.396Z,115
2017-04-12T11:30:51.359Z,175
2017-04-12T11:32:00.655Z,205
2017-04-12T11:33:09.947Z,185
2017-04-12T11:34:18.925Z,135
2017-04-12T11:35:27.911Z,105
2017-04-12T11:36:36.889Z,100
2017-04-12T11:37:46.124Z,105
2017-04-12T11:38:55.092Z,110
2017-04-12T11:40:04.075Z,155
2017-04-12T11:41:13.057Z,150
2017-04-12T11:42:22.037Z,125
2017-04-12T11:43:31.410Z,145
2017-04-12T11:44:40.397Z,90
2017-04-12T11:45:49.372Z,90
2017-04-12T11:46:58.358Z,85
2017-04-12T11:48:07.448Z,95
2017-04-12T11:49:16.674Z,135
2017-04-12T11:50:25.661Z,185
2017-04-12T11:51:34.647Z,190
2017-04-12T11:52:43.630Z,125
2017-04-12T11:53:52.605Z,95
2017-04-12T11:55:02.011Z,115
2017-04-12T11:56:10.995Z,175
2017-04-12T11:57:19.975Z,210
2017-04-12T11:58:28.955Z,200
2017-04-12T11:59:37.943Z,195
2017-04-12T12:00:47.180Z,180
2017-04-12T12:01:56.161Z,125
2017-04-12T12:03:05.138Z,100
2017-04-12T12:04:14.102Z,100
2017-04-12T12:05:23.062Z,90
2017-04-12T12:06:32.274Z,65
2017-04-12T12:07:41.321Z,60
2017-04-12T12:08:50.285Z,50
2017-04-12T12:09:59.245Z,60
2017-04-12T12:11:08.203Z,75
2017-04-12T12:12:17.412Z,65
2017-04-12T12:13:26.377Z,65
2017-04-12T12:14:35.332Z,55
2017-04-12T12:15:44.330Z,55
2017-04-12T12:16:53.290Z,60
2017-04-12T12:18:02.578Z,65
2017-04-12T12:19:11.535Z,75
2017-04-12T12:20:20.489Z,95
2017-04-12T12:21:29.448Z,80
2017-04-12T12:22:38.751Z,75
2017-04-12T12:23:48.012Z,80
2017-04-12T12:24:56.979Z,90
2017-04-12T12:26:05.932Z,90
2017-04-12T12:27:14.888Z,80
2017-04-12T12:28:23.843Z,80
2017-04-12T12:29:33.047Z,80
2017-04-12T12:30:42.062Z,100
2017-04-12T12:31:51.111Z,120
2017-04-12T12:33:00.067Z,120
2017-04-12T12:34:09.026Z,105
2017-04-12T12:35:18.231Z,115
2017-04-12T12:36:27.190Z,110
2017-04-12T12:37:36.148Z,125
2017-04-12T12:38:45.440Z,165
2017-04-12T12:39:54.398Z,180
2017-04-12T12:41:03.608Z,170
2017-04-12T12:42:12.561Z,200
2017-04-12T12:43:21.515Z,230
2017-04-12T12:44:30.799Z,235
2017-04-12T12:45:39.749Z,230
2017-04-12T12:46:49.257Z,235
2017-04-12T12:47:58.344Z,235
2017-04-12T12:49:07.295Z,225
2017-04-12T12:50:16.315Z,190
2017-04-12T12:51:25.286Z,155
2017-04-12T12:52:34.539Z,140
2017-04-12T12:53:43.495Z,115
2017-04-12T12:54:52.449Z,125
2017-04-12T12:56:01.495Z,120
2017-04-12T12:57:10.490Z,120
2017-04-12T12:58:19.785Z,135
2017-04-12T12:59:28.742Z,150
2017-04-12T13:00:37.706Z,160
2017-04-12T13:01:46.662Z,140
2017-04-12T13:02:55.625Z,165
2017-04-12T13:04:04.838Z,165
2017-04-12T13:05:13.798Z,165
2017-04-12T13:06:22.766Z,175
2017-04-12T13:07:32.055Z,170
2017-04-12T13:08:41.097Z,160
2017-04-12T13:09:50.311Z,155
2017-04-12T13:10:59.360Z,135
2017-04-12T13:12:08.324Z,125
2017-04-12T13:13:17.276Z,120
2017-04-12T13:14:26.316Z,125
2017-04-12T13:15:35.533Z,160
2017-04-12T13:16:44.576Z,170
2017-04-12T13:17:53.534Z,185
2017-04-12T13:19:02.495Z,180
2017-04-12T13:20:11.459Z,170
2017-04-12T13:21:20.670Z,105
2017-04-12T13:22:29.667Z,110
2017-04-12T13:23:38.622Z,110
2017-04-12T13:24:47.673Z,95
2017-04-12T13:25:56.634Z,75
2017-04-12T13:27:08.961Z,70
2017-04-12T13:28:17.914Z,85
2017-04-12T13:29:27.205Z,105
2017-04-12T13:30:36.300Z,120
2017-04-12T13:31:45.258Z,100
2017-04-12T13:32:54.473Z,80
2017-04-12T13:34:03.496Z,75
2017-04-12T13:35:12.504Z,85
2017-04-12T13:36:21.552Z,85
2017-04-12T13:37:30.509Z,75
2017-04-12T13:38:39.715Z,55
2017-04-12T13:39:48.676Z,50
2017-04-12T13:40:57.724Z,60
2017-04-12T13:42:06.774Z,65
2017-04-12T13:43:15.727Z,65
2017-04-12T13:44:24.940Z,60
2017-04-12T13:45:33.900Z,65
2017-04-12T13:46:42.854Z,70
2017-04-12T13:47:51.816Z,70
2017-04-12T13:49:00.769Z,70
2017-04-12T13:50:10.358Z,60
2017-04-12T13:51:19.333Z,60
2017-04-12T13:52:28.284Z,65
2017-04-12T13:53:37.248Z,70
2017-04-12T13:54:46.429Z,65
2017-04-12T13:55:55.633Z,65
2017-04-12T13:57:04.592Z,75
2017-04-12T13:58:13.550Z,75
2017-04-12T13:59:22.508Z,70
2017-04-12T14:00:31.794Z,55
2017-04-12T14:01:40.998Z,45
2017-04-12T14:02:49.959Z,50
2017-04-12T14:03:58.919Z,45
2017-04-12T14:05:07.871Z,40
2017-04-12T14:06:16.837Z,40
2017-04-12T14:07:26.042Z,50
2017-04-12T14:08:34.992Z,55
2017-04-12T14:09:43.950Z,45
2017-04-12T14:10:52.905Z,50
2017-04-12T14:12:01.858Z,60
2017-04-12T14:13:11.073Z,60
2017-04-12T14:14:20.027Z,65
2017-04-12T14:15:28.983Z,65
2017-04-12T14:16:37.943Z,60
2017-04-12T14:17:46.909Z,65
2017-04-12T14:18:56.220Z,70
2017-04-12T14:20:05.175Z,85
2017-04-12T14:21:14.143Z,80
2017-04-12T14:22:23.095Z,75
2017-04-12T14:23:32.075Z,70
2017-04-12T14:24:41.279Z,70
2017-04-12T14:25:50.235Z,80
2017-04-12T14:26:59.187Z,80
2017-04-12T14:28:08.136Z,85
2017-04-12T14:29:17.225Z,85
2017-04-12T14:30:26.429Z,85
2017-04-12T14:31:35.391Z,85
2017-04-12T14:32:44.351Z,90
2017-04-12T14:33:53.306Z,85
2017-04-12T14:35:02.277Z,75
2017-04-12T14:36:11.517Z,75
2017-04-12T14:37:20.471Z,85
2017-04-12T14:38:29.423Z,90
2017-04-12T14:39:38.383Z,85
2017-04-12T14:40:47.337Z,75
2017-04-12T14:41:56.549Z,65
2017-04-12T14:43:05.502Z,65
2017-04-12T14:44:14.455Z,60
2017-04-12T14:45:23.411Z,55
2017-04-12T14:46:32.372Z,60
2017-04-12T14:47:41.575Z,70
2017-04-12T14:48:50.529Z,75
2017-04-12T14:49:59.580Z,80
2017-04-12T14:51:08.537Z,85
2017-04-12T14:52:17.576Z,85
2017-04-12T14:53:26.782Z,80
2017-04-12T14:54:35.738Z,85
2017-04-12T14:55:45.033Z,80
2017-04-12T14:56:53.983Z,80
2017-04-12T14:58:02.935Z,85
2017-04-12T14:59:12.134Z,85
2017-04-12T15:00:21.093Z,85
2017-04-12T15:01:30.057Z,80
2017-04-12T15:02:39.013Z,75
2017-04-12T15:03:47.995Z,75
2017-04-12T15:04:57.202Z,70
2017-04-12T15:06:06.247Z,60
2017-04-12T15:07:15.201Z,60
2017-04-12T15:08:24.163Z,60
2017-04-12T15:09:33.127Z,60
2017-04-12T15:10:42.331Z,55
2017-04-12T15:11:51.282Z,50
2017-04-12T15:13:00.233Z,50
2017-04-12T15:14:09.192Z,50
2017-04-12T15:15:18.148Z,55
2017-04-12T15:16:27.365Z,55
2017-04-12T15:17:36.345Z,50
2017-04-12T15:18:45.344Z,65
2017-04-12T15:19:54.296Z,70
2017-04-12T15:21:03.249Z,65
2017-04-12T15:22:12.456Z,60
2017-04-12T15:23:21.498Z,65
2017-04-12T15:24:30.461Z,70
2017-04-12T15:25:39.414Z,70
2017-04-12T15:26:48.370Z,65
2017-04-12T15:27:57.588Z,55
2017-04-12T15:29:18.283Z,55
2017-04-12T15:30:37.715Z,55
2017-04-12T15:31:46.669Z,50
2017-04-12T15:32:56.012Z,50
2017-04-12T15:34:04.960Z,45
2017-04-12T15:35:13.922Z,45
2017-04-12T15:36:22.881Z,45
2017-04-12T15:37:31.835Z,40
2017-04-12T15:38:50.136Z,40
2017-04-12T15:40:00.244Z,40
2017-04-12T15:41:09.200Z,40
2017-04-12T15:42:18.159Z,40
2017-04-12T15:43:27.116Z,40
2017-04-12T15:44:36.319Z,35
2017-04-12T15:45:45.275Z,45
2017-04-12T15:46:54.228Z,50
2017-04-12T15:48:03.179Z,50
2017-04-12T15:49:12.133Z,45
2017-04-12T15:50:21.337Z,40
2017-04-12T15:51:30.288Z,35
2017-04-12T15:52:39.287Z,40
2017-04-12T15:53:48.326Z,35
2017-04-12T15:54:57.284Z,25
2017-04-12T15:56:06.487Z,25
2017-04-12T15:57:15.484Z,20
2017-04-12T15:58:24.440Z,30
2017-04-12T15:59:33.389Z,30
2017-04-12T16:00:42.346Z,25
2017-04-12T16:01:51.639Z,25
2017-04-12T16:03:00.603Z,20
2017-04-12T16:04:09.564Z,25
2017-04-12T16:05:18.518Z,25
2017-04-12T16:06:27.473Z,25
2017-04-12T16:07:36.684Z,25
2017-04-12T16:08:45.633Z,30
2017-04-12T16:09:54.588Z,35
2017-04-12T16:11:03.555Z,40
2017-04-12T16:12:12.508Z,35
2017-04-12T16:13:21.804Z,35
2017-04-12T16:14:30.769Z,35
2017-04-12T16:15:39.726Z,30
2017-04-12T16:16:48.678Z,25
2017-04-12T16:17:57.633Z,25
2017-04-12T16:19:06.842Z,15
2017-04-12T16:20:16.115Z,20
2017-04-12T16:21:25.071Z,10
2017-04-12T16:22:34.113Z,25
2017-04-12T16:23:43.070Z,20